Time;durP1;ratioP1;P1;durP2;ratioP2;P2;SDS_P1;SDS_P2;PMS_P1;PMS_P2;Temp;Humidity;BMP_temperature;BMP_pressure;BME280_temperature;BME280_humidity;BME280_pressure;Samples;Min_cycle;Max_cycle;Signal;HPM_P1;HPM_P2
2022/11/05 00:17:41;;;;;;;0.20;0.10;;;13.70;99.90;;;;;;25628054;23;20380;-71
2022/11/05 00:27:50;;;;;;;0.20;0.10;;;13.20;99.90;;;;;;25656368;23;20431;-70
2022/11/05 00:37:55;;;;;;;0.20;0.00;;;13.10;99.90;;;;;;25660262;23;20376;-71
2022/11/05 00:58:23;;;;;;;0.20;0.10;;;13.10;99.90;;;;;;25661431;23;20393;-68
2022/11/05 01:08:28;;;;;;;0.20;0.00;;;13.00;99.90;;;;;;25659542;23;20364;-69
2022/11/05 01:18:33;;;;;;;0.20;0.10;;;12.70;99.90;;;;;;25536828;23;20377;-68
2022/11/05 01:28:36;;;;;;;0.20;0.00;;;12.80;99.90;;;;;;25536148;23;20376;-68
2022/11/05 01:38:42;;;;;;;0.20;0.05;;;12.70;99.90;;;;;;25533860;23;20377;-71
2022/11/05 01:48:46;;;;;;;0.20;0.10;;;12.80;99.90;;;;;;25535270;23;20374;-68
2022/11/05 01:58:59;;;;;;;0.20;0.00;;;12.60;99.90;;;;;;25533773;23;20385;-68
2022/11/05 02:09:07;;;;;;;0.20;0.10;;;13.10;99.90;;;;;;25536053;23;20377;-68
2022/11/05 02:19:36;;;;;;;0.20;0.10;;;13.50;99.90;;;;;;25656815;23;20382;-69
2022/11/05 02:30:11;;;;;;;0.20;0.10;;;13.10;99.90;;;;;;25658934;23;20372;-68
2022/11/05 02:40:27;;;;;;;0.20;0.10;;;13.50;99.90;;;;;;25607711;23;20386;-69
2022/11/05 02:50:35;;;;;;;0.20;0.10;;;13.00;99.90;;;;;;25657291;23;20378;-68
2022/11/05 03:00:48;;;;;;;0.20;0.10;;;12.90;99.90;;;;;;25658072;23;20387;-68
2022/11/05 03:10:59;;;;;;;0.20;0.00;;;12.90;99.90;;;;;;25657984;23;20440;-69
2022/11/05 03:21:09;;;;;;;0.20;0.10;;;12.80;99.90;;;;;;25630134;23;20372;-69
2022/11/05 03:31:14;;;;;;;0.20;0.10;;;12.60;99.90;;;;;;25654565;23;20356;-69
2022/11/05 03:41:22;;;;;;;0.20;0.10;;;12.70;99.90;;;;;;25655933;23;20379;-68
2022/11/05 03:51:32;;;;;;;0.20;0.10;;;13.00;99.90;;;;;;25630495;23;20371;-70
2022/11/05 04:01:38;;;;;;;0.20;0.00;;;12.90;99.90;;;;;;25656361;23;20951;-69
2022/11/05 04:32:26;;;;;;;0.20;0.10;;;12.40;99.90;;;;;;25636283;23;20830;-70
2022/11/05 04:42:34;;;;;;;0.20;0.10;;;12.40;99.90;;;;;;25660632;23;20372;-70
2022/11/05 04:52:39;;;;;;;0.20;0.00;;;12.30;99.90;;;;;;25662837;23;20356;-69
2022/11/05 05:02:45;;;;;;;0.20;0.10;;;12.50;99.90;;;;;;25661496;23;20403;-68
2022/11/05 05:12:48;;;;;;;0.20;0.10;;;13.10;99.90;;;;;;25635902;23;20383;-71
2022/11/05 05:22:54;;;;;;;0.20;0.00;;;12.90;99.90;;;;;;25661424;23;20371;-71
2022/11/05 05:33:02;;;;;;;0.20;0.10;;;12.70;99.90;;;;;;25658208;23;20376;-70
2022/11/05 05:43:07;;;;;;;0.20;0.00;;;12.60;99.90;;;;;;25659739;23;20375;-70
2022/11/05 05:53:14;;;;;;;0.20;0.10;;;12.60;99.90;;;;;;25659835;23;20374;-71
2022/11/05 06:03:19;;;;;;;0.20;0.10;;;12.70;99.90;;;;;;25659364;23;20386;-71
2022/11/05 06:13:23;;;;;;;0.20;0.00;;;12.80;99.90;;;;;;25630438;23;20375;-70
2022/11/05 06:23:30;;;;;;;0.20;0.10;;;12.70;99.90;;;;;;25629680;23;20386;-70
2022/11/05 06:33:34;;;;;;;0.20;0.10;;;12.80;99.90;;;;;;25632187;23;20367;-71
2022/11/05 06:43:39;;;;;;;0.20;0.00;;;13.00;99.90;;;;;;25656491;23;20395;-70
2022/11/05 06:53:42;;;;;;;0.20;0.10;;;12.70;99.90;;;;;;25631896;23;20379;-69
2022/11/05 07:03:48;;;;;;;0.20;0.10;;;13.10;99.90;;;;;;25627949;23;20380;-69
2022/11/05 07:13:52;;;;;;;0.20;0.10;;;13.30;99.90;;;;;;25656241;23;20406;-70
2022/11/05 07:23:57;;;;;;;0.20;0.10;;;13.20;99.90;;;;;;25654773;23;20371;-71
2022/11/05 07:34:00;;;;;;;0.20;0.00;;;13.30;99.90;;;;;;25656430;23;20360;-70
2022/11/05 07:44:06;;;;;;;0.20;0.10;;;13.20;99.90;;;;;;25631393;23;20383;-71
2022/11/05 07:54:09;;;;;;;0.20;0.10;;;13.60;99.90;;;;;;25664189;23;20372;-71
2022/11/05 08:04:14;;;;;;;0.20;0.10;;;14.00;99.90;;;;;;25661470;23;20375;-71
2022/11/05 08:14:18;;;;;;;0.20;0.10;;;14.40;99.90;;;;;;25636396;23;20383;-71
2022/11/05 08:24:23;;;;;;;0.20;0.10;;;14.50;99.90;;;;;;25661044;23;20375;-70
2022/11/05 08:34:27;;;;;;;0.20;0.10;;;14.70;99.90;;;;;;25660319;23;20371;-71
2022/11/05 08:44:32;;;;;;;0.20;0.10;;;15.10;99.90;;;;;;25631448;23;20379;-71
2022/11/05 08:54:36;;;;;;;0.20;0.00;;;15.70;99.90;;;;;;25659493;23;20368;-70
2022/11/05 09:04:41;;;;;;;0.20;0.03;;;16.10;99.90;;;;;;25631891;23;20399;-70
2022/11/05 09:14:45;;;;;;;0.20;0.10;;;16.40;99.90;;;;;;25658315;23;20402;-71
2022/11/05 09:24:50;;;;;;;0.20;0.10;;;16.90;99.90;;;;;;25658278;23;20376;-73
2022/11/05 09:34:53;;;;;;;0.20;0.10;;;17.60;99.90;;;;;;25657240;23;20367;-71
2022/11/05 09:45:01;;;;;;;0.20;0.10;;;17.60;99.90;;;;;;25608022;23;20379;-71
2022/11/05 09:55:14;;;;;;;0.20;0.00;;;17.50;99.90;;;;;;25656848;23;20371;-70
2022/11/05 10:05:21;;;;;;;0.20;0.00;;;17.90;99.90;;;;;;25628000;23;20438;-71
2022/11/05 10:15:30;;;;;;;0.20;0.10;;;18.40;99.90;;;;;;25627374;23;20828;-72
2022/11/05 10:25:39;;;;;;;0.20;0.00;;;18.70;99.90;;;;;;25655090;23;20375;-69
2022/11/05 10:35:49;;;;;;;0.20;0.00;;;19.30;99.90;;;;;;25656045;23;20375;-71
2022/11/05 10:46:07;;;;;;;0.20;0.00;;;20.00;99.90;;;;;;25651704;23;20455;-70
2022/11/05 10:56:29;;;;;;;0.20;0.10;;;20.90;99.90;;;;;;25626494;23;21264;-72
2022/11/05 11:06:38;;;;;;;0.20;0.20;;;21.10;99.90;;;;;;25627529;23;20380;-72
2022/11/05 11:16:43;;;;;;;0.80;0.80;;;20.90;99.90;;;;;;25650733;23;20512;-71
2022/11/05 11:26:48;;;;;;;0.20;0.00;;;20.70;99.90;;;;;;25625747;23;20391;-71
2022/11/05 11:36:55;;;;;;;0.20;0.00;;;21.80;99.90;;;;;;25625583;23;20367;-71
2022/11/05 11:47:07;;;;;;;0.20;0.00;;;21.10;99.90;;;;;;25623737;23;20376;-71
2022/11/05 11:57:22;;;;;;;0.20;0.00;;;21.30;99.90;;;;;;25624146;23;20367;-72
2022/11/05 12:07:42;;;;;;;0.20;0.00;;;21.30;99.90;;;;;;25621977;23;20379;-71
2022/11/05 12:17:52;;;;;;;0.20;0.00;;;21.60;99.90;;;;;;25648711;23;20367;-72
2022/11/05 12:28:17;;;;;;;0.20;0.00;;;21.80;99.90;;;;;;25652344;23;20399;-69
2022/11/05 12:38:32;;;;;;;0.20;0.10;;;20.80;99.90;;;;;;25633382;23;20391;-72
2022/11/05 12:49:01;;;;;;;0.20;0.00;;;20.60;99.90;;;;;;25630858;23;20367;-72
2022/11/05 12:59:19;;;;;;;0.20;0.00;;;20.60;99.90;;;;;;25657969;23;20442;-72
2022/11/05 13:09:31;;;;;;;0.20;0.00;;;19.90;99.90;;;;;;25604971;23;20360;-70
2022/11/05 13:19:41;;;;;;;0.20;0.00;;;20.10;99.90;;;;;;25631065;23;20375;-73
2022/11/05 13:29:51;;;;;;;0.20;0.07;;;20.00;99.90;;;;;;25657392;23;20467;-72
2022/11/05 13:39:58;;;;;;;0.20;0.10;;;20.40;99.90;;;;;;25628309;23;20471;-72
2022/11/05 13:51:01;;;;;;;0.20;0.03;;;20.80;99.90;;;;;;25629756;23;20384;-73
2022/11/05 14:01:14;;;;;;;0.20;0.00;;;21.10;99.90;;;;;;25400374;23;20375;-73
2022/11/05 14:11:22;;;;;;;0.20;0.03;;;23.30;99.90;;;;;;25656481;23;20402;-74
2022/11/05 14:21:33;;;;;;;0.20;0.00;;;23.70;99.90;;;;;;25656351;23;20402;-74
2022/11/05 14:31:53;;;;;;;0.20;0.00;;;24.50;99.90;;;;;;25653417;23;20363;-72
2022/11/05 14:42:18;;;;;;;0.20;0.00;;;24.70;99.90;;;;;;25655630;23;20784;-73
2022/11/05 14:52:22;;;;;;;0.20;0.00;;;25.40;99.90;;;;;;25652462;23;20379;-74
2022/11/05 15:02:32;;;;;;;0.20;0.00;;;24.50;99.90;;;;;;25649589;23;20375;-75
2022/11/05 15:12:40;;;;;;;0.20;0.00;;;23.10;99.90;;;;;;25597497;23;20426;-73
2022/11/05 15:22:50;;;;;;;0.20;0.03;;;20.70;99.90;;;;;;25650901;23;20372;-74
2022/11/05 15:32:54;;;;;;;0.20;0.00;;;19.70;99.90;;;;;;25651010;23;20356;-75
2022/11/05 15:43:19;;;;;;;0.20;0.00;;;19.80;99.90;;;;;;25625477;23;20437;-73
2022/11/05 15:53:54;;;;;;;0.20;0.10;;;20.00;99.90;;;;;;25625676;23;20368;-71
2022/11/05 16:04:21;;;;;;;0.20;0.07;;;19.20;99.90;;;;;;25629153;23;20388;-72
2022/11/05 16:14:35;;;;;;;0.20;0.00;;;18.80;99.90;;;;;;25634168;23;20367;-72
2022/11/05 16:24:42;;;;;;;0.20;0.10;;;17.90;99.90;;;;;;25631359;23;20479;-73
2022/11/05 16:34:48;;;;;;;0.20;0.10;;;17.50;99.90;;;;;;25632907;23;20363;-73
2022/11/05 16:44:54;;;;;;;0.20;0.10;;;16.60;99.90;;;;;;25630562;23;20390;-72
2022/11/05 16:54:58;;;;;;;0.20;0.10;;;16.00;99.90;;;;;;25656298;23;20386;-74
2022/11/05 17:05:03;;;;;;;0.20;0.10;;;15.60;99.90;;;;;;25656165;23;20403;-74
2022/11/05 17:15:19;;;;;;;0.20;0.00;;;15.40;99.90;;;;;;25652177;23;20375;-73
2022/11/05 17:25:26;;;;;;;0.20;0.10;;;15.00;99.90;;;;;;25600758;23;20394;-71
2022/11/05 17:35:29;;;;;;;0.20;0.10;;;14.70;99.90;;;;;;25628645;23;20573;-72
2022/11/05 17:45:40;;;;;;;0.20;0.10;;;14.50;99.90;;;;;;25654495;23;20394;-73
2022/11/05 17:55:45;;;;;;;0.20;0.10;;;14.30;99.90;;;;;;25654712;23;20368;-74
2022/11/05 18:05:50;;;;;;;0.20;0.10;;;14.00;99.90;;;;;;25625223;23;20387;-73
2022/11/05 18:15:54;;;;;;;0.20;0.10;;;14.00;99.90;;;;;;25624983;23;20382;-74
2022/11/05 18:25:59;;;;;;;0.20;0.10;;;13.80;99.90;;;;;;25623927;23;20407;-73
2022/11/05 18:36:03;;;;;;;0.20;0.00;;;13.80;99.90;;;;;;25649505;23;20375;-73
2022/11/05 18:46:09;;;;;;;0.20;0.03;;;13.80;99.90;;;;;;25624726;23;20375;-73
2022/11/05 18:56:32;;;;;;;0.20;0.10;;;13.70;99.90;;;;;;25646786;23;20371;-73
2022/11/05 19:06:38;;;;;;;0.20;0.00;;;13.60;99.90;;;;;;25620242;23;20383;-74
2022/11/05 19:16:42;;;;;;;0.20;0.10;;;13.50;99.90;;;;;;25649799;23;20390;-73
2022/11/05 19:26:47;;;;;;;0.20;0.00;;;13.60;99.90;;;;;;25619914;23;20375;-74
2022/11/05 19:36:51;;;;;;;0.20;0.00;;;13.40;99.90;;;;;;25649793;23;21172;-72
2022/11/05 19:46:56;;;;;;;0.20;0.10;;;13.20;99.90;;;;;;25631084;23;20390;-72
2022/11/05 19:57:00;;;;;;;0.20;0.00;;;13.20;99.90;;;;;;25622846;23;20371;-72
2022/11/05 20:07:05;;;;;;;0.20;0.10;;;13.20;99.90;;;;;;25656096;23;20379;-71
2022/11/05 20:17:09;;;;;;;0.20;0.10;;;13.20;99.90;;;;;;25656186;23;20375;-73
2022/11/05 20:27:15;;;;;;;0.20;0.00;;;13.10;99.90;;;;;;25629294;23;20390;-72
2022/11/05 20:37:18;;;;;;;0.20;0.10;;;13.00;99.90;;;;;;25656301;23;20368;-76
2022/11/05 20:47:23;;;;;;;0.20;0.00;;;12.90;99.90;;;;;;25627233;23;20383;-72
2022/11/05 20:57:27;;;;;;;0.20;0.10;;;13.10;99.90;;;;;;25656481;23;20405;-71
2022/11/05 21:07:32;;;;;;;0.20;0.00;;;13.00;99.90;;;;;;25631495;23;20376;-72
2022/11/05 21:17:36;;;;;;;0.20;0.07;;;12.90;99.90;;;;;;25631139;23;20376;-71
2022/11/05 21:27:41;;;;;;;0.20;0.00;;;13.30;99.90;;;;;;25657759;23;20386;-72
2022/11/05 21:37:46;;;;;;;0.20;0.00;;;13.30;99.90;;;;;;25656918;23;20439;-72
2022/11/05 21:48:03;;;;;;;;;;;;;;;;;;;;;
2022/11/05 22:08:39;;;;;;;0.20;0.03;;;13.00;99.90;;;;;;25656474;23;20398;-72
2022/11/05 22:18:42;;;;;;;0.20;0.10;;;13.10;99.90;;;;;;25656494;23;20376;-73
2022/11/05 22:28:53;;;;;;;1.20;1.20;;;12.90;99.90;;;;;;25654561;23;20359;-75
2022/11/05 22:39:04;;;;;;;0.20;0.10;;;12.90;99.90;;;;;;25655690;23;20372;-75
2022/11/05 22:49:27;;;;;;;0.20;0.00;;;12.60;99.90;;;;;;25615720;23;20372;-70
2022/11/05 22:59:30;;;;;;;0.20;0.00;;;13.00;99.90;;;;;;25624699;23;20363;-72
2022/11/05 23:51:50;;;;;;;0.20;0.10;;;13.30;99.90;;;;;;25647943;23;20408;-70
